createdAt,value
2023-01-28T00:00:49.115Z,102067.31
2023-01-28T00:03:16.471Z,102076.09
2023-01-28T00:05:43.727Z,102070.06
2023-01-28T00:08:11.454Z,102062.25
2023-01-28T00:10:41.895Z,102054.44
2023-01-28T00:13:12.783Z,102058.00
2023-01-28T00:15:39.458Z,102050.19
2023-01-28T00:18:06.112Z,102044.97
2023-01-28T00:20:32.828Z,102047.59
2023-01-28T00:22:59.460Z,102032.78
2023-01-28T00:25:26.151Z,102031.00
2023-01-28T00:27:52.838Z,102027.56
2023-01-28T00:30:19.661Z,102028.41
2023-01-28T00:32:46.448Z,102023.25
2023-01-28T00:35:13.847Z,102015.44
2023-01-28T00:37:40.732Z,102012.94
2023-01-28T00:40:10.041Z,102011.19
2023-01-28T00:42:37.528Z,102010.41
2023-01-28T00:45:04.501Z,102004.44
2023-01-28T00:47:31.183Z,101994.03
2023-01-28T00:49:58.034Z,101985.41
2023-01-28T00:52:24.689Z,101993.31
2023-01-28T00:54:51.390Z,101990.66
2023-01-28T00:57:18.039Z,101986.28
2023-01-28T00:59:44.703Z,101972.38
2023-01-28T01:02:14.090Z,101973.22
2023-01-28T01:04:41.399Z,101971.50
2023-01-28T01:07:08.153Z,101975.94
2023-01-28T01:09:34.819Z,101964.56
2023-01-28T01:12:01.754Z,101967.16
2023-01-28T01:14:28.500Z,101963.66
2023-01-28T01:16:55.163Z,101962.03
2023-01-28T01:19:21.820Z,101955.13
2023-01-28T01:21:50.833Z,101956.09
2023-01-28T01:24:18.131Z,101943.28
2023-01-28T01:26:44.941Z,101935.56
2023-01-28T01:29:11.713Z,101932.22
2023-01-28T01:31:39.081Z,101928.84
2023-01-28T01:34:05.847Z,101916.72
2023-01-28T01:36:32.525Z,101916.72
2023-01-28T01:38:59.220Z,101913.34
2023-01-28T01:41:32.157Z,101902.13
2023-01-28T01:44:01.402Z,101909.19
2023-01-28T01:46:49.376Z,101907.50
2023-01-28T01:49:23.525Z,101899.75
2023-01-28T01:51:54.688Z,101897.13
2023-01-28T01:54:28.611Z,101894.56
2023-01-28T01:56:55.650Z,101893.75
2023-01-28T01:59:27.909Z,101888.53
2023-01-28T02:01:56.222Z,101885.09
2023-01-28T02:04:27.620Z,101884.22
2023-01-28T02:06:55.342Z,101871.22
2023-01-28T02:09:29.694Z,101860.00
2023-01-28T02:12:04.588Z,101855.69
2023-01-28T02:14:35.884Z,101846.09
2023-01-28T02:17:03.171Z,101854.81
2023-01-28T02:19:39.327Z,101844.38
2023-01-28T02:22:30.932Z,101836.59
2023-01-28T02:25:12.750Z,101827.97
2023-01-28T02:28:22.002Z,101822.69
2023-01-28T02:31:08.355Z,101813.16
2023-01-28T02:33:37.860Z,101807.13
2023-01-28T02:36:28.018Z,101808.78
2023-01-28T02:38:58.951Z,101805.31
2023-01-28T02:41:33.304Z,101784.47
2023-01-28T02:44:02.731Z,101787.09
2023-01-28T02:46:47.637Z,101776.69
2023-01-28T02:49:23.521Z,101775.81
2023-01-28T02:52:42.146Z,101782.81
2023-01-28T02:55:20.038Z,101774.16
2023-01-28T02:57:55.907Z,101761.13
2023-01-28T03:00:43.362Z,101754.19
2023-01-28T03:03:27.015Z,101756.84
2023-01-28T03:06:05.297Z,101758.53
2023-01-28T03:09:13.131Z,101749.06
2023-01-28T03:12:02.098Z,101736.13
2023-01-28T03:14:51.340Z,101737.97
2023-01-28T03:18:02.684Z,101722.41
2023-01-28T03:21:03.268Z,101726.78
2023-01-28T03:24:06.627Z,101722.50
2023-01-28T03:26:59.703Z,101718.19
2023-01-28T03:29:48.340Z,101717.38
2023-01-28T03:32:34.219Z,101717.44
2023-01-28T03:35:20.176Z,101706.19
2023-01-28T03:37:47.136Z,101706.28
2023-01-28T03:40:14.090Z,101705.56
2023-01-28T03:42:40.755Z,101696.97
2023-01-28T03:45:08.212Z,101695.34
2023-01-28T03:47:34.958Z,101688.50
2023-01-28T03:50:01.697Z,101686.00
2023-01-28T03:52:32.359Z,101683.53
2023-01-28T03:54:59.110Z,101680.16
2023-01-28T03:57:27.591Z,101682.00
2023-01-28T03:59:54.376Z,101663.84
2023-01-28T04:02:23.154Z,101662.22
2023-01-28T04:04:50.466Z,101646.69
2023-01-28T04:07:17.601Z,101642.47
2023-01-28T04:09:44.707Z,101644.31
2023-01-28T04:12:11.530Z,101635.75
2023-01-28T04:14:40.205Z,101643.66
2023-01-28T04:17:08.864Z,101645.50
2023-01-28T04:19:37.264Z,101644.66
2023-01-28T04:22:06.450Z,101629.03
2023-01-28T04:24:33.339Z,101627.34
2023-01-28T04:27:00.169Z,101618.66
2023-01-28T04:29:26.899Z,101616.09
2023-01-28T04:31:53.552Z,101601.31
2023-01-28T04:34:20.580Z,101599.56
2023-01-28T04:36:47.261Z,101593.47
2023-01-28T04:39:16.808Z,101584.78
2023-01-28T04:41:43.452Z,101590.00
2023-01-28T04:44:10.149Z,101588.28
2023-01-28T04:46:36.852Z,101587.41
2023-01-28T04:49:03.670Z,101584.84
2023-01-28T04:51:30.473Z,101588.34
2023-01-28T04:53:57.389Z,101577.03
2023-01-28T04:56:24.055Z,101577.09
2023-01-28T04:58:50.726Z,101565.78
2023-01-28T05:01:17.393Z,101555.38
2023-01-28T05:03:44.137Z,101543.22
2023-01-28T05:06:10.819Z,101551.91
2023-01-28T05:08:37.467Z,101548.50
2023-01-28T05:11:04.268Z,101529.38
2023-01-28T05:13:30.942Z,101538.13
2023-01-28T05:15:57.689Z,101535.56
2023-01-28T05:18:24.439Z,101521.72
2023-01-28T05:20:51.099Z,101518.28
2023-01-28T05:23:17.801Z,101511.38
2023-01-28T05:25:45.409Z,101500.94
2023-01-28T05:28:12.072Z,101506.22
2023-01-28T05:30:39.272Z,101489.75
2023-01-28T05:33:06.031Z,101498.53
2023-01-28T05:35:33.029Z,101503.78
2023-01-28T05:37:59.799Z,101495.13
2023-01-28T05:40:26.478Z,101502.09
2023-01-28T05:42:53.174Z,101492.56
2023-01-28T05:45:19.949Z,101485.59
2023-01-28T05:47:46.614Z,101482.13
2023-01-28T05:50:15.049Z,101482.13
2023-01-28T05:52:42.188Z,101487.41
2023-01-28T05:55:09.519Z,101487.34
2023-01-28T05:57:36.386Z,101485.63
2023-01-28T06:00:05.690Z,101487.34
2023-01-28T06:02:32.550Z,101481.25
2023-01-28T06:04:59.964Z,101473.44
2023-01-28T06:07:26.763Z,101473.44
2023-01-28T06:09:53.420Z,101470.81
2023-01-28T06:12:20.099Z,101482.16
2023-01-28T06:14:46.776Z,101475.22
2023-01-28T06:17:13.440Z,101478.66
2023-01-28T06:19:40.117Z,101483.00
2023-01-28T06:22:06.859Z,101480.44
2023-01-28T06:24:33.500Z,101486.53
2023-01-28T06:27:00.231Z,101484.78
2023-01-28T06:29:27.053Z,101479.56
2023-01-28T06:31:53.858Z,101479.56
2023-01-28T06:34:20.805Z,101475.16
2023-01-28T06:36:47.545Z,101471.69
2023-01-28T06:39:14.281Z,101477.78
2023-01-28T06:41:40.962Z,101473.44
2023-01-28T06:44:07.657Z,101478.66
2023-01-28T06:46:34.739Z,101467.34
2023-01-28T06:49:01.474Z,101470.00
2023-01-28T06:51:28.104Z,101476.97
2023-01-28T06:53:54.773Z,101477.81
2023-01-28T06:56:21.560Z,101474.34
2023-01-28T06:58:48.307Z,101463.03
2023-01-28T07:01:14.987Z,101451.72
2023-01-28T07:03:41.760Z,101444.75
2023-01-28T07:06:08.653Z,101448.22
2023-01-28T07:08:35.805Z,101456.06
2023-01-28T07:11:04.099Z,101452.59
2023-01-28T07:13:30.880Z,101456.06
2023-01-28T07:15:57.558Z,101455.19
2023-01-28T07:18:24.283Z,101455.25
2023-01-28T07:20:50.935Z,101452.63
2023-01-28T07:23:17.604Z,101457.88
2023-01-28T07:25:44.284Z,101444.84
2023-01-28T07:28:12.077Z,101457.91
2023-01-28T07:30:38.848Z,101464.00
2023-01-28T07:33:05.732Z,101464.91
2023-01-28T07:35:32.536Z,101457.94
2023-01-28T07:38:00.977Z,101459.69
2023-01-28T07:40:29.049Z,101460.56
2023-01-28T07:42:56.860Z,101463.22
2023-01-28T07:45:25.382Z,101441.47
2023-01-28T07:48:04.042Z,101432.75
2023-01-28T07:50:34.189Z,101427.56
2023-01-28T07:53:04.341Z,101417.13
2023-01-28T07:55:31.642Z,101412.78
2023-01-28T07:58:00.372Z,101430.19
2023-01-28T08:00:29.493Z,101432.81
2023-01-28T08:03:08.296Z,101406.69
2023-01-28T08:05:41.610Z,101411.06
2023-01-28T08:08:11.926Z,101400.63
2023-01-28T08:10:39.695Z,101402.38
2023-01-28T08:13:07.142Z,101398.03
2023-01-28T08:15:35.382Z,101402.38
2023-01-28T08:18:02.877Z,101403.25
2023-01-28T08:20:30.218Z,101402.38
2023-01-28T08:23:13.431Z,101393.66
2023-01-28T08:25:40.208Z,101391.97
2023-01-28T08:28:07.860Z,101386.78
2023-01-28T08:30:35.682Z,101377.22
2023-01-28T08:33:02.385Z,101374.63
2023-01-28T08:35:29.903Z,101367.69
2023-01-28T08:37:59.888Z,101372.06
2023-01-28T08:40:27.013Z,101365.97
2023-01-28T08:42:54.483Z,101364.22
2023-01-28T08:45:22.922Z,101369.50
2023-01-28T08:47:49.921Z,101383.44
2023-01-28T08:50:18.332Z,101379.94
2023-01-28T08:52:46.448Z,101376.47
2023-01-28T08:55:14.019Z,101375.63
2023-01-28T08:57:40.686Z,101352.13
2023-01-28T09:00:10.776Z,101363.44
2023-01-28T09:02:38.344Z,101370.44
2023-01-28T09:05:06.298Z,101362.63
2023-01-28T09:07:35.248Z,101351.28
2023-01-28T09:10:02.292Z,101360.91
2023-01-28T09:12:28.959Z,101360.91
2023-01-28T09:14:55.717Z,101326.06
2023-01-28T09:17:22.775Z,101337.38
2023-01-28T09:19:49.980Z,101342.66
2023-01-28T09:22:17.310Z,101328.72
2023-01-28T09:24:44.039Z,101329.63
2023-01-28T09:27:10.848Z,101313.06
2023-01-28T09:29:38.778Z,101297.41
2023-01-28T09:32:07.402Z,101304.38
2023-01-28T09:34:34.375Z,101310.50
2023-01-28T09:37:01.311Z,101307.03
2023-01-28T09:39:28.634Z,101297.50
2023-01-28T09:42:28.064Z,101298.38
2023-01-28T09:45:36.623Z,101285.34
2023-01-28T09:48:06.749Z,101285.34
2023-01-28T09:50:37.040Z,101277.53
2023-01-28T09:53:26.090Z,101281.06
2023-01-28T09:56:03.381Z,101289.81
2023-01-28T09:58:30.264Z,101291.53
2023-01-28T10:01:18.655Z,101294.19
2023-01-28T10:03:45.307Z,101283.75
2023-01-28T10:06:27.029Z,101271.59
2023-01-28T10:09:24.727Z,101275.09
2023-01-28T10:12:04.806Z,101264.66
2023-01-28T10:14:40.151Z,101259.50
2023-01-28T10:17:06.837Z,101252.53
2023-01-28T10:19:44.004Z,101259.53
2023-01-28T10:22:18.813Z,101249.97
2023-01-28T10:24:51.597Z,101242.13
2023-01-28T10:27:24.050Z,101246.53
2023-01-28T10:29:51.907Z,101242.22
2023-01-28T10:32:38.730Z,101233.53
2023-01-28T10:35:05.760Z,101216.09
2023-01-28T10:37:35.745Z,101210.03
2023-01-28T10:40:04.173Z,101217.03
2023-01-28T10:42:32.261Z,101212.66
2023-01-28T10:45:23.998Z,101221.38
2023-01-28T10:47:56.241Z,101223.16
2023-01-28T10:50:25.153Z,101225.81
2023-01-28T10:52:59.637Z,101218.84
2023-01-28T10:55:54.417Z,101228.50
2023-01-28T10:58:24.710Z,101232.00
2023-01-28T11:01:00.712Z,101220.69
2023-01-28T11:03:27.908Z,101224.19
2023-01-28T11:05:56.043Z,101224.22
2023-01-28T11:08:24.708Z,101226.00
2023-01-28T11:10:53.047Z,101217.25
2023-01-28T11:13:30.431Z,101212.03
2023-01-28T11:16:16.908Z,101211.19
2023-01-28T11:18:55.375Z,101205.94
2023-01-28T11:21:25.721Z,101205.06
2023-01-28T11:24:05.011Z,101195.44
2023-01-28T11:26:36.269Z,101204.16
2023-01-28T11:29:03.887Z,101207.69
2023-01-28T11:31:39.459Z,101192.84
2023-01-28T11:34:06.363Z,101204.19
2023-01-28T11:36:34.880Z,101196.31
2023-01-28T11:39:26.189Z,101198.97
2023-01-28T11:41:54.100Z,101204.22
2023-01-28T11:44:23.773Z,101196.34
2023-01-28T11:46:56.703Z,101189.38
2023-01-28T11:49:33.764Z,101198.97
2023-01-28T11:52:25.216Z,101190.25
2023-01-28T11:55:20.672Z,101185.88
2023-01-28T11:58:16.387Z,101184.13
2023-01-28T12:00:42.975Z,101175.38
2023-01-28T12:03:32.058Z,101174.50
2023-01-28T12:06:07.542Z,101173.66
2023-01-28T12:08:46.010Z,101168.38
2023-01-28T12:12:11.585Z,101153.53
2023-01-28T12:14:56.672Z,101150.91
2023-01-28T12:17:26.391Z,101144.78
2023-01-28T12:20:12.066Z,101145.66
2023-01-28T12:22:50.641Z,101133.44
2023-01-28T12:25:20.362Z,101143.91
2023-01-28T12:27:50.289Z,101138.69
2023-01-28T12:30:45.230Z,101135.19
2023-01-28T12:33:46.507Z,101143.94
2023-01-28T12:36:37.608Z,101139.56
2023-01-28T12:39:46.115Z,101142.19
2023-01-28T12:42:28.911Z,101141.28
2023-01-28T12:45:12.188Z,101156.16
2023-01-28T12:47:40.732Z,101145.66
2023-01-28T12:50:31.687Z,101136.91
2023-01-28T12:53:05.023Z,101139.53
2023-01-28T12:55:45.560Z,101141.31
2023-01-28T12:58:53.764Z,101141.31
2023-01-28T13:01:27.470Z,101138.66
2023-01-28T13:04:19.458Z,101139.56
2023-01-28T13:07:01.907Z,101135.19
2023-01-28T13:09:30.220Z,101139.56
2023-01-28T13:12:07.186Z,101136.94
2023-01-28T13:14:34.629Z,101137.78
2023-01-28T13:17:12.351Z,101146.53
2023-01-28T13:19:41.587Z,101144.78
2023-01-28T13:22:34.171Z,101144.78
2023-01-28T13:25:21.398Z,101140.41
2023-01-28T13:28:05.810Z,101140.44
2023-01-28T13:30:38.830Z,101136.94
2023-01-28T13:33:09.389Z,101135.19
2023-01-28T13:35:38.990Z,101133.44
2023-01-28T13:38:24.789Z,101143.06
2023-01-28T13:40:57.578Z,101156.16
2023-01-28T13:43:33.043Z,101150.91
2023-01-28T13:46:02.906Z,101154.41
2023-01-28T13:48:35.289Z,101147.44
2023-01-28T13:51:04.474Z,101155.28
2023-01-28T13:53:39.882Z,101152.66
2023-01-28T13:56:22.244Z,101157.00
2023-01-28T13:59:15.104Z,101157.91
2023-01-28T14:01:44.815Z,101156.16
2023-01-28T14:04:29.545Z,101157.00
2023-01-28T14:07:11.448Z,101156.16
2023-01-28T14:09:47.381Z,101150.03
2023-01-28T14:12:32.735Z,101156.13
2023-01-28T14:15:20.089Z,101161.38
2023-01-28T14:17:49.736Z,101164.88
2023-01-28T14:20:20.760Z,101174.44
2023-01-28T14:22:49.691Z,101172.72
2023-01-28T14:25:27.755Z,101172.69
2023-01-28T14:27:55.997Z,101179.69
2023-01-28T14:30:47.265Z,101172.72
2023-01-28T14:33:14.044Z,101176.19
2023-01-28T14:35:48.602Z,101178.81
2023-01-28T14:38:21.865Z,101173.56
2023-01-28T14:40:55.825Z,101184.91
2023-01-28T14:43:25.243Z,101197.13
2023-01-28T14:45:51.872Z,101190.13
2023-01-28T14:48:50.872Z,101186.59
2023-01-28T14:51:40.973Z,101180.50
2023-01-28T14:54:27.129Z,101192.69
2023-01-28T14:57:08.349Z,101194.44
2023-01-28T14:59:51.533Z,101193.56
2023-01-28T15:02:21.349Z,101200.56
2023-01-28T15:04:48.745Z,101204.88
2023-01-28T15:07:22.124Z,101199.63
2023-01-28T15:10:06.764Z,101197.88
2023-01-28T15:12:37.731Z,101211.84
2023-01-28T15:15:38.391Z,101203.09
2023-01-28T15:18:16.602Z,101190.00
2023-01-28T15:20:52.954Z,101192.59
2023-01-28T15:23:43.267Z,101198.69
2023-01-28T15:26:20.296Z,101196.94
2023-01-28T15:28:48.816Z,101190.81
2023-01-28T15:31:39.094Z,101189.03
2023-01-28T15:34:17.964Z,101193.38
2023-01-28T15:36:45.086Z,101190.78
2023-01-28T15:39:21.149Z,101176.78
2023-01-28T15:41:58.918Z,101184.63
2023-01-28T15:44:47.073Z,101178.53
2023-01-28T15:47:18.020Z,101182.00
2023-01-28T15:49:51.712Z,101189.88
2023-01-28T15:52:18.877Z,101187.19
2023-01-28T15:54:50.343Z,101188.06
2023-01-28T15:57:21.494Z,101195.91
2023-01-28T15:59:51.267Z,101192.38
2023-01-28T16:02:20.815Z,101195.88
2023-01-28T16:04:57.591Z,101188.88
2023-01-28T16:07:26.437Z,101190.63
2023-01-28T16:09:55.271Z,101203.72
2023-01-28T16:12:22.923Z,101199.31
2023-01-28T16:14:52.574Z,101194.06
2023-01-28T16:17:23.064Z,101183.59
2023-01-28T16:19:56.112Z,101175.75
2023-01-28T16:22:39.622Z,101184.44
2023-01-28T16:25:21.277Z,101198.34
2023-01-28T16:27:48.371Z,101211.44
2023-01-28T16:30:16.423Z,101204.44
2023-01-28T16:32:44.423Z,101205.28
2023-01-28T16:35:16.065Z,101201.81
2023-01-28T16:37:42.900Z,101200.91
2023-01-28T16:40:11.841Z,101203.50
2023-01-28T16:42:38.528Z,101210.47
2023-01-28T16:45:05.738Z,101219.16
2023-01-28T16:47:32.443Z,101220.03
2023-01-28T16:49:59.124Z,101219.13
2023-01-28T16:52:25.844Z,101213.00
2023-01-28T16:54:52.546Z,101215.59
2023-01-28T16:57:22.494Z,101216.47
2023-01-28T16:59:49.178Z,101208.59
2023-01-28T17:02:17.831Z,101209.47
2023-01-28T17:04:44.503Z,101212.06
2023-01-28T17:07:11.193Z,101219.91
2023-01-28T17:09:37.986Z,101215.50
2023-01-28T17:12:05.179Z,101216.38
2023-01-28T17:14:32.022Z,101213.72
2023-01-28T17:16:58.692Z,101211.06
2023-01-28T17:19:25.488Z,101218.03
2023-01-28T17:21:52.154Z,101209.28
2023-01-28T17:24:19.416Z,101198.81
2023-01-28T17:26:46.125Z,101194.44
2023-01-28T17:29:12.774Z,101203.13
2023-01-28T17:31:39.589Z,101200.50
2023-01-28T17:34:08.180Z,101196.97
2023-01-28T17:36:35.165Z,101199.56
2023-01-28T17:39:01.953Z,101200.44
2023-01-28T17:41:28.716Z,101199.53
2023-01-28T17:43:56.394Z,101200.34
2023-01-28T17:46:24.891Z,101208.19
2023-01-28T17:48:51.770Z,101202.94
2023-01-28T17:51:19.150Z,101196.84
2023-01-28T17:53:50.916Z,101202.06
2023-01-28T17:56:21.294Z,101206.41
2023-01-28T17:58:52.224Z,101203.81
2023-01-28T18:01:19.232Z,101208.16
2023-01-28T18:03:45.960Z,101205.50
2023-01-28T18:06:12.671Z,101207.25
2023-01-28T18:08:39.401Z,101203.75
2023-01-28T18:11:10.991Z,101205.47
2023-01-28T18:13:42.514Z,101207.19
2023-01-28T18:16:15.039Z,101207.19
2023-01-28T18:18:42.192Z,101211.50
2023-01-28T18:21:23.152Z,101214.97
2023-01-28T18:23:52.257Z,101215.84
2023-01-28T18:26:19.031Z,101215.03
2023-01-28T18:28:45.831Z,101207.19
2023-01-28T18:31:12.639Z,101207.22
2023-01-28T18:33:39.343Z,101208.97
2023-01-28T18:36:07.068Z,101215.06
2023-01-28T18:38:33.777Z,101206.34
2023-01-28T18:41:00.767Z,101199.41
2023-01-28T18:43:28.889Z,101209.03
2023-01-28T18:45:55.807Z,101210.78
2023-01-28T18:48:22.569Z,101212.59
2023-01-28T18:50:54.376Z,101217.78
2023-01-28T18:53:22.270Z,101211.69
2023-01-28T18:55:49.297Z,101208.13
2023-01-28T18:58:16.244Z,101209.84
2023-01-28T19:00:42.932Z,101207.25
2023-01-28T19:03:09.613Z,101208.13
2023-01-28T19:05:37.379Z,101203.75
2023-01-28T19:08:05.986Z,101208.09
2023-01-28T19:10:33.008Z,101210.69
2023-01-28T19:12:59.941Z,101202.84
2023-01-28T19:15:26.665Z,101203.69
2023-01-28T19:17:53.444Z,101205.44
2023-01-28T19:20:20.183Z,101195.84
2023-01-28T19:22:46.992Z,101199.34
2023-01-28T19:25:14.052Z,101199.38
2023-01-28T19:27:40.927Z,101191.56
2023-01-28T19:30:09.453Z,101193.28
2023-01-28T19:32:36.116Z,101203.75
2023-01-28T19:35:03.225Z,101204.59
2023-01-28T19:37:30.320Z,101207.22
2023-01-28T19:39:56.976Z,101195.03
2023-01-28T19:42:24.004Z,101194.16
2023-01-28T19:44:51.297Z,101189.78
2023-01-28T19:47:17.988Z,101191.47
2023-01-28T19:49:44.669Z,101191.47
2023-01-28T19:52:11.422Z,101172.31
2023-01-28T19:54:38.112Z,101172.38
2023-01-28T19:57:04.901Z,101162.78
2023-01-28T19:59:31.616Z,101168.00
2023-01-28T20:01:58.263Z,101169.72
2023-01-28T20:04:24.965Z,101178.47
2023-01-28T20:06:51.668Z,101176.72
2023-01-28T20:09:22.106Z,101175.84
2023-01-28T20:11:48.771Z,101170.63
2023-01-28T20:14:16.229Z,101170.63
2023-01-28T20:16:42.935Z,101177.56
2023-01-28T20:19:15.503Z,101170.63
2023-01-28T20:21:42.417Z,101164.50
2023-01-28T20:24:12.388Z,101161.00
2023-01-28T20:26:40.959Z,101158.44
2023-01-28T20:29:10.143Z,101159.31
2023-01-28T20:31:38.480Z,101142.72
2023-01-28T20:34:05.969Z,101144.47
2023-01-28T20:36:32.693Z,101148.81
2023-01-28T20:38:59.379Z,101137.53
2023-01-28T20:41:27.085Z,101125.34
2023-01-28T20:43:54.739Z,101128.00
2023-01-28T20:46:27.845Z,101124.50
2023-01-28T20:48:56.313Z,101134.09
2023-01-28T20:51:25.873Z,101122.75
2023-01-28T20:53:53.547Z,101119.22
2023-01-28T20:56:22.952Z,101128.81
2023-01-28T20:58:55.633Z,101134.88
2023-01-28T21:01:24.976Z,101140.97
2023-01-28T21:03:52.036Z,101147.03
2023-01-28T21:06:19.040Z,101139.22
2023-01-28T21:08:45.896Z,101125.28
2023-01-28T21:11:14.007Z,101134.00
2023-01-28T21:13:40.680Z,101130.50
2023-01-28T21:16:07.906Z,101120.94
2023-01-28T21:18:34.787Z,101125.31
2023-01-28T21:21:11.816Z,101117.50
2023-01-28T21:23:38.461Z,101115.75
2023-01-28T21:26:05.515Z,101111.41
2023-01-28T21:28:32.747Z,101106.19
2023-01-28T21:31:15.536Z,101096.63
2023-01-28T21:33:42.333Z,101099.25
2023-01-28T21:36:14.234Z,101104.50
2023-01-28T21:38:41.314Z,101109.72
2023-01-28T21:41:09.176Z,101099.28
2023-01-28T21:43:36.071Z,101111.50
2023-01-28T21:46:03.160Z,101114.09
2023-01-28T21:48:30.695Z,101114.97
2023-01-28T21:51:23.532Z,101109.78
2023-01-28T21:53:50.260Z,101111.50
2023-01-28T21:56:17.155Z,101128.03
2023-01-28T21:59:02.361Z,101124.53
2023-01-28T22:01:29.071Z,101115.84
2023-01-28T22:03:55.785Z,101114.09
2023-01-28T22:06:22.478Z,101113.22
2023-01-28T22:08:49.228Z,101096.69
2023-01-28T22:11:15.873Z,101099.31
2023-01-28T22:13:43.293Z,101083.63
2023-01-28T22:16:10.184Z,101082.78
2023-01-28T22:18:36.877Z,101081.91
2023-01-28T22:21:08.417Z,101092.38
2023-01-28T22:23:35.706Z,101102.84
2023-01-28T22:26:02.784Z,101114.16
2023-01-28T22:28:29.638Z,101104.59
2023-01-28T22:31:08.635Z,101122.03
2023-01-28T22:33:35.734Z,101114.19
2023-01-28T22:36:06.228Z,101104.59
2023-01-28T22:38:33.354Z,101089.81
2023-01-28T22:41:07.709Z,101089.84
2023-01-28T22:43:34.625Z,101088.09
2023-01-28T22:46:03.669Z,101094.19
2023-01-28T22:48:31.025Z,101092.41
2023-01-28T22:51:10.658Z,101082.88
2023-01-28T22:53:37.321Z,101076.78
2023-01-28T22:56:04.237Z,101080.25
2023-01-28T22:58:31.830Z,101078.53
2023-01-28T23:00:59.041Z,101084.63
2023-01-28T23:03:25.716Z,101067.25
2023-01-28T23:05:52.854Z,101074.25
2023-01-28T23:08:19.539Z,101069.88
2023-01-28T23:10:50.233Z,101057.69
2023-01-28T23:13:19.677Z,101045.50
2023-01-28T23:16:06.102Z,101042.00
2023-01-28T23:18:52.350Z,101043.75
2023-01-28T23:21:47.313Z,101037.63
2023-01-28T23:24:19.718Z,101040.19
2023-01-28T23:26:58.549Z,101034.13
2023-01-28T23:29:27.812Z,101033.22
2023-01-28T23:32:03.956Z,101030.63
2023-01-28T23:34:37.442Z,101021.91
2023-01-28T23:37:08.403Z,101007.09
2023-01-28T23:39:35.547Z,101019.31
2023-01-28T23:42:20.897Z,101020.19
2023-01-28T23:44:48.512Z,101011.47
2023-01-28T23:47:15.639Z,101000.16
2023-01-28T23:49:42.494Z,101002.78
2023-01-28T23:52:09.585Z,101006.25
2023-01-28T23:54:36.551Z,101017.59
2023-01-28T23:57:04.371Z,101006.25
2023-01-28T23:59:31.144Z,101002.78
